Chester, Connecticut
Current Conditions -  °F | °C
As of 1:15 PM on Saturday 22 Nov 2014 (Local Time) from KSNC Reporting Station
Clear Clear  
Wind Chill: -1°   Ceiling: Unl
Heat Index:   Visibility: 10mi
Dew Point: -7°   Wind: 12mph
Humidity: 48%   Direction: 220°SW
Pressure: 30.29"   Gusts: 20mph
Location:  41.4°N, 72.45°W
Report Text: KSNC 221815Z AUTO 22010G17KT 10SM CLR 03/M07 A3029 RMK AO2
Loading
Personal Weather Stations






























Interactive Weather Map New forecast layout! Learn more

10-Day Weather Forecast

Advertisements
Track Severe Weather on mobile